Forside
METAR-TAF:

METAR-TAF

Lufthavne :

Detroit, Michigan, USA

Breddekreds: 42-24-33N, længdekreds: 083-00-36W, højde: 191 m

Aktuelle vejr

Denne rapport blev lavet for 25 minutter siden, kl. 17:53 UTC
Vind 14 kt fra sydsydvest
Temperatur 9°C
Fugtighed 34%
Tryk 1015 hPa
Sigt: 16.1 km
skyfri

METAR: KDET 231753Z 20014KT 10SM CLR 09/M06 A2997 RMK AO2 SLP151 T00941056 10094 21006 58024

Tid: 13:18 (18:18 UTC)

Vejrudsigter

Denne rapport blev lavet for 41 minutter siden, kl. 17:37 UTC
Foreløbig gælder fra 23 på 18 UTC til 24 på 18 UTC
Vind 13 kt fra sydsydvest med vindstød på up til 22 kt
Sigt: 10 km
skyfri
Fra 24 på 0000 UTC
Vind 11 kt fra sydsydvest
Sigt: 10 km
skyfri
Fra 24 på 0800 UTC
Vind 7 kt fra sydvest
Sigt: 10 km
Brudte skyer i en højde af 2500 ft
Fra 24 på 1400 UTC
Vind 5 kt fra nordnordvest
Sigt: 10 km
Brudte skyer i en højde af 2500 ft

TAF: KDET 231737Z 2318/2418 20013G22KT P6SM SKC FM240000 21011KT P6SM SKC FM240800 22007KT P6SM BKN025 FM241400 34005KT P6SM BKN025

Vejrobservationer og prognoser fra mere end 4000 lufthavne (METAR og TAF).

De gule og røde prikker repræsenterer de meteorologiske stationer.

Flyt musen over at se navnet på stationen.

Så klik over at se vejr observationer og prognoser.

At skifte det kort: Klik på de grønne knapper med et sort kors for at zoome ind; på den grønne knap med en bindestreg for at zoome ud; eller på de grønne pile for tilstødende kort.


METAR-TAF: